Pagrindinis puslapis
METAR-TAF:

METAR-TAF

Oro uostai :

Castres, Prancūzija

platuma: 43-33-25N, ilguma: 2-17-21E, Aukštis: 239 m

Dabartinis oras

Ataskaita buvo paskelbta 32 minutes, ne 10:30 UTC
Vėjas 21 kt iš Pietryčių
Temperatūra 12°C
Drėgmė 67%
Slėgis 1020 hPa
Matomumas 10 km arba daugiau
nėra debesų žemiau 1500 m ir nėra kamuolinių lietaus debesų

METAR: LFCK 251030Z AUTO 13021KT CAVOK 12/06 Q1020 TEMPO 12017G27KT

Laikas: 12:02 (11:02 UTC)

Prognozė

Ataskaita buvo paskelbta 3 valandos ir 2 minutes, ne 08:00 UTC
Prognozė galioja nuo 25 metu 09 UTC su 25 metu 18 UTC
Vėjas 12 kt iš Rytų/Pietryčių
Matomumas 10 km arba daugiau
nėra debesų žemiau 1500 m ir nėra kamuolinių lietaus debesų
Laikinai
nuo 25 metu 09 UTC su 25 metu 18 UTC
Vėjas 17 kt iš Rytų/Pietryčių su gūsio iki 27 kt
Tikimybė 40% :
Laikinai
nuo 25 metu 16 UTC su 25 metu 18 UTC
Su prošvaistėmis ne aukštis 1100 ft

TAF: LFCK 250800Z 2509/2518 11012KT CAVOK TEMPO 2509/2518 12017G27KT PROB40 TEMPO 2516/2518 BKN011

Orai ataskaitas ir orų prognozės (METAR, TAF).

turimą stotys yra geltonos ir raudonos taškus žemėlapyje.

Perkelti pele per norėdami pamatyti stoties vardą.

Tada spustelėkite, norėdami matyti oro stebėjimo ir prognozės.

Norėdami pakeisti žemėlapį: spustelėkite ant žalios mygtukų su juodo kryžiaus žemyn,; žalią mygtuką su brūkšneliu, jei norite nutolinti; arba žalių rodyklių gretimoms žemėlapius.


METAR-TAF: